sensor_id;sensor_type;location;lat;lon;timestamp;P1;durP1;ratioP1;P2;durP2;ratioP2
4636;SDS011;2331;48.806;9.140;2023-05-16T00:01:55;11.13;;;7.32;;
4636;SDS011;2331;48.806;9.140;2023-05-16T00:04:21;12.65;;;8.20;;
4636;SDS011;2331;48.806;9.140;2023-05-16T00:06:48;10.40;;;7.68;;
4636;SDS011;2331;48.806;9.140;2023-05-16T00:09:16;12.98;;;8.48;;
4636;SDS011;2331;48.806;9.140;2023-05-16T00:11:43;12.20;;;9.13;;
4636;SDS011;2331;48.806;9.140;2023-05-16T00:14:12;15.13;;;10.50;;
4636;SDS011;2331;48.806;9.140;2023-05-16T00:16:39;14.68;;;10.07;;
4636;SDS011;2331;48.806;9.140;2023-05-16T00:19:06;12.80;;;9.55;;
4636;SDS011;2331;48.806;9.140;2023-05-16T00:21:34;16.17;;;10.55;;
4636;SDS011;2331;48.806;9.140;2023-05-16T00:24:00;22.02;;;11.43;;
4636;SDS011;2331;48.806;9.140;2023-05-16T00:26:29;17.35;;;11.07;;
4636;SDS011;2331;48.806;9.140;2023-05-16T00:28:56;20.92;;;12.85;;
4636;SDS011;2331;48.806;9.140;2023-05-16T00:31:22;16.45;;;11.75;;
4636;SDS011;2331;48.806;9.140;2023-05-16T00:33:49;21.15;;;12.70;;
4636;SDS011;2331;48.806;9.140;2023-05-16T00:36:16;16.30;;;11.95;;
4636;SDS011;2331;48.806;9.140;2023-05-16T00:38:43;22.05;;;13.77;;
4636;SDS011;2331;48.806;9.140;2023-05-16T00:41:09;21.25;;;12.80;;
4636;SDS011;2331;48.806;9.140;2023-05-16T00:43:38;21.08;;;14.93;;
4636;SDS011;2331;48.806;9.140;2023-05-16T00:46:05;19.00;;;12.93;;
4636;SDS011;2331;48.806;9.140;2023-05-16T00:48:32;19.70;;;13.65;;
4636;SDS011;2331;48.806;9.140;2023-05-16T00:50:59;21.25;;;14.32;;
4636;SDS011;2331;48.806;9.140;2023-05-16T00:53:26;28.55;;;14.85;;
4636;SDS011;2331;48.806;9.140;2023-05-16T00:55:53;24.33;;;15.88;;
4636;SDS011;2331;48.806;9.140;2023-05-16T00:58:21;21.05;;;14.73;;
4636;SDS011;2331;48.806;9.140;2023-05-16T01:00:51;21.25;;;15.00;;
4636;SDS011;2331;48.806;9.140;2023-05-16T01:03:18;22.00;;;14.30;;
4636;SDS011;2331;48.806;9.140;2023-05-16T01:05:45;27.58;;;15.50;;
4636;SDS011;2331;48.806;9.140;2023-05-16T01:08:12;21.42;;;14.70;;
4636;SDS011;2331;48.806;9.140;2023-05-16T01:10:41;24.58;;;16.30;;
4636;SDS011;2331;48.806;9.140;2023-05-16T01:13:20;21.48;;;14.50;;
4636;SDS011;2331;48.806;9.140;2023-05-16T01:15:53;25.92;;;16.15;;
4636;SDS011;2331;48.806;9.140;2023-05-16T01:18:29;28.05;;;16.00;;
4636;SDS011;2331;48.806;9.140;2023-05-16T01:21:03;22.10;;;15.68;;
4636;SDS011;2331;48.806;9.140;2023-05-16T01:23:39;25.30;;;17.23;;
4636;SDS011;2331;48.806;9.140;2023-05-16T01:26:16;27.35;;;17.55;;
4636;SDS011;2331;48.806;9.140;2023-05-16T01:28:46;27.88;;;18.25;;
4636;SDS011;2331;48.806;9.140;2023-05-16T01:31:14;27.33;;;17.95;;
4636;SDS011;2331;48.806;9.140;2023-05-16T01:33:41;27.70;;;17.92;;
4636;SDS011;2331;48.806;9.140;2023-05-16T01:36:10;27.75;;;18.75;;
4636;SDS011;2331;48.806;9.140;2023-05-16T01:38:41;30.30;;;19.65;;
4636;SDS011;2331;48.806;9.140;2023-05-16T01:41:17;28.98;;;20.48;;
4636;SDS011;2331;48.806;9.140;2023-05-16T01:43:50;32.85;;;20.95;;
4636;SDS011;2331;48.806;9.140;2023-05-16T01:46:20;31.52;;;20.92;;
4636;SDS011;2331;48.806;9.140;2023-05-16T01:48:51;36.08;;;23.63;;
4636;SDS011;2331;48.806;9.140;2023-05-16T01:51:25;30.67;;;20.27;;
4636;SDS011;2331;48.806;9.140;2023-05-16T01:53:56;35.45;;;22.05;;
4636;SDS011;2331;48.806;9.140;2023-05-16T01:56:29;31.58;;;21.33;;
4636;SDS011;2331;48.806;9.140;2023-05-16T01:58:57;36.35;;;22.38;;
4636;SDS011;2331;48.806;9.140;2023-05-16T02:01:25;31.23;;;19.38;;
4636;SDS011;2331;48.806;9.140;2023-05-16T02:03:52;35.35;;;23.67;;
4636;SDS011;2331;48.806;9.140;2023-05-16T02:06:19;38.92;;;23.30;;
4636;SDS011;2331;48.806;9.140;2023-05-16T02:08:47;36.22;;;23.30;;
4636;SDS011;2331;48.806;9.140;2023-05-16T02:11:14;38.85;;;24.63;;
4636;SDS011;2331;48.806;9.140;2023-05-16T02:13:42;37.80;;;23.25;;
4636;SDS011;2331;48.806;9.140;2023-05-16T02:16:09;41.00;;;24.23;;
4636;SDS011;2331;48.806;9.140;2023-05-16T02:18:36;40.47;;;25.02;;
4636;SDS011;2331;48.806;9.140;2023-05-16T02:21:04;41.40;;;25.58;;
4636;SDS011;2331;48.806;9.140;2023-05-16T02:23:31;36.70;;;23.27;;
4636;SDS011;2331;48.806;9.140;2023-05-16T02:25:57;37.67;;;24.80;;
4636;SDS011;2331;48.806;9.140;2023-05-16T02:28:24;42.58;;;25.52;;
4636;SDS011;2331;48.806;9.140;2023-05-16T02:30:56;41.33;;;24.90;;
4636;SDS011;2331;48.806;9.140;2023-05-16T02:33:23;43.20;;;25.33;;
4636;SDS011;2331;48.806;9.140;2023-05-16T02:35:50;42.63;;;26.80;;
4636;SDS011;2331;48.806;9.140;2023-05-16T02:38:17;44.42;;;26.20;;
4636;SDS011;2331;48.806;9.140;2023-05-16T02:40:45;43.30;;;25.55;;
4636;SDS011;2331;48.806;9.140;2023-05-16T02:43:12;43.33;;;27.20;;
4636;SDS011;2331;48.806;9.140;2023-05-16T02:45:38;43.75;;;26.50;;
4636;SDS011;2331;48.806;9.140;2023-05-16T02:48:07;43.95;;;26.92;;
4636;SDS011;2331;48.806;9.140;2023-05-16T02:50:34;45.63;;;26.23;;
4636;SDS011;2331;48.806;9.140;2023-05-16T02:53:01;43.22;;;26.88;;
4636;SDS011;2331;48.806;9.140;2023-05-16T02:55:28;45.38;;;27.08;;
4636;SDS011;2331;48.806;9.140;2023-05-16T02:57:55;47.53;;;28.15;;
4636;SDS011;2331;48.806;9.140;2023-05-16T03:00:22;51.88;;;29.38;;
4636;SDS011;2331;48.806;9.140;2023-05-16T03:02:49;49.17;;;28.92;;
4636;SDS011;2331;48.806;9.140;2023-05-16T03:05:17;48.00;;;28.73;;
4636;SDS011;2331;48.806;9.140;2023-05-16T03:07:44;46.78;;;27.90;;
4636;SDS011;2331;48.806;9.140;2023-05-16T03:10:10;49.88;;;28.85;;
4636;SDS011;2331;48.806;9.140;2023-05-16T03:12:37;45.22;;;28.35;;
4636;SDS011;2331;48.806;9.140;2023-05-16T03:15:05;49.20;;;29.83;;
4636;SDS011;2331;48.806;9.140;2023-05-16T03:17:33;49.55;;;29.00;;
4636;SDS011;2331;48.806;9.140;2023-05-16T03:20:00;49.53;;;30.02;;
4636;SDS011;2331;48.806;9.140;2023-05-16T03:22:29;51.40;;;30.77;;
4636;SDS011;2331;48.806;9.140;2023-05-16T03:24:55;51.60;;;31.17;;
4636;SDS011;2331;48.806;9.140;2023-05-16T03:27:22;53.88;;;31.02;;
4636;SDS011;2331;48.806;9.140;2023-05-16T03:29:49;55.88;;;31.52;;
4636;SDS011;2331;48.806;9.140;2023-05-16T03:32:15;58.92;;;33.08;;
4636;SDS011;2331;48.806;9.140;2023-05-16T03:34:42;55.13;;;31.77;;
4636;SDS011;2331;48.806;9.140;2023-05-16T03:37:10;57.60;;;32.58;;
4636;SDS011;2331;48.806;9.140;2023-05-16T03:39:40;58.05;;;30.15;;
4636;SDS011;2331;48.806;9.140;2023-05-16T03:42:07;58.75;;;33.58;;
4636;SDS011;2331;48.806;9.140;2023-05-16T03:44:34;62.53;;;35.17;;
4636;SDS011;2331;48.806;9.140;2023-05-16T03:47:00;64.68;;;33.28;;
4636;SDS011;2331;48.806;9.140;2023-05-16T03:49:27;59.72;;;32.95;;
4636;SDS011;2331;48.806;9.140;2023-05-16T03:51:54;59.38;;;32.42;;
4636;SDS011;2331;48.806;9.140;2023-05-16T03:54:21;65.75;;;36.58;;
4636;SDS011;2331;48.806;9.140;2023-05-16T03:56:49;69.65;;;36.60;;
4636;SDS011;2331;48.806;9.140;2023-05-16T03:59:16;60.45;;;34.58;;
4636;SDS011;2331;48.806;9.140;2023-05-16T04:01:43;61.13;;;34.95;;
4636;SDS011;2331;48.806;9.140;2023-05-16T04:04:09;65.55;;;34.50;;
4636;SDS011;2331;48.806;9.140;2023-05-16T04:06:36;59.80;;;35.20;;
4636;SDS011;2331;48.806;9.140;2023-05-16T04:09:03;62.85;;;36.08;;
4636;SDS011;2331;48.806;9.140;2023-05-16T04:11:31;66.57;;;36.10;;
4636;SDS011;2331;48.806;9.140;2023-05-16T04:13:59;67.00;;;36.45;;
4636;SDS011;2331;48.806;9.140;2023-05-16T04:16:26;67.82;;;36.92;;
4636;SDS011;2331;48.806;9.140;2023-05-16T04:18:53;65.10;;;36.30;;
4636;SDS011;2331;48.806;9.140;2023-05-16T04:21:20;64.95;;;36.75;;
4636;SDS011;2331;48.806;9.140;2023-05-16T04:23:47;66.35;;;35.88;;
4636;SDS011;2331;48.806;9.140;2023-05-16T04:26:13;67.82;;;37.13;;
4636;SDS011;2331;48.806;9.140;2023-05-16T04:28:40;63.25;;;35.72;;
4636;SDS011;2331;48.806;9.140;2023-05-16T04:31:08;71.80;;;38.85;;
4636;SDS011;2331;48.806;9.140;2023-05-16T04:33:35;69.75;;;39.10;;
4636;SDS011;2331;48.806;9.140;2023-05-16T04:36:02;65.00;;;36.53;;
4636;SDS011;2331;48.806;9.140;2023-05-16T04:38:30;69.55;;;37.75;;
4636;SDS011;2331;48.806;9.140;2023-05-16T04:40:56;64.88;;;37.25;;
4636;SDS011;2331;48.806;9.140;2023-05-16T04:43:23;66.18;;;36.90;;
4636;SDS011;2331;48.806;9.140;2023-05-16T04:45:50;66.50;;;35.35;;
4636;SDS011;2331;48.806;9.140;2023-05-16T04:48:19;67.30;;;38.40;;
4636;SDS011;2331;48.806;9.140;2023-05-16T04:50:46;70.93;;;39.08;;
4636;SDS011;2331;48.806;9.140;2023-05-16T04:53:12;66.10;;;36.42;;
4636;SDS011;2331;48.806;9.140;2023-05-16T04:55:39;66.47;;;36.78;;
4636;SDS011;2331;48.806;9.140;2023-05-16T04:58:06;68.60;;;38.00;;
4636;SDS011;2331;48.806;9.140;2023-05-16T05:00:33;69.25;;;38.00;;
4636;SDS011;2331;48.806;9.140;2023-05-16T05:02:59;64.80;;;34.80;;
4636;SDS011;2331;48.806;9.140;2023-05-16T05:05:28;70.13;;;38.10;;
4636;SDS011;2331;48.806;9.140;2023-05-16T05:07:56;65.55;;;35.15;;
4636;SDS011;2331;48.806;9.140;2023-05-16T05:10:23;64.97;;;37.55;;
4636;SDS011;2331;48.806;9.140;2023-05-16T05:12:51;67.55;;;37.38;;
4636;SDS011;2331;48.806;9.140;2023-05-16T05:15:18;66.60;;;36.55;;
4636;SDS011;2331;48.806;9.140;2023-05-16T05:17:45;62.97;;;36.58;;
4636;SDS011;2331;48.806;9.140;2023-05-16T05:20:12;66.75;;;35.60;;
4636;SDS011;2331;48.806;9.140;2023-05-16T05:22:40;70.15;;;37.78;;
4636;SDS011;2331;48.806;9.140;2023-05-16T05:25:07;69.65;;;37.45;;
4636;SDS011;2331;48.806;9.140;2023-05-16T05:27:34;68.72;;;38.00;;
4636;SDS011;2331;48.806;9.140;2023-05-16T05:30:01;68.20;;;37.25;;
4636;SDS011;2331;48.806;9.140;2023-05-16T05:32:29;66.50;;;35.13;;
4636;SDS011;2331;48.806;9.140;2023-05-16T05:34:56;70.05;;;36.55;;
4636;SDS011;2331;48.806;9.140;2023-05-16T05:37:22;70.50;;;37.92;;
4636;SDS011;2331;48.806;9.140;2023-05-16T05:39:51;59.45;;;33.65;;
4636;SDS011;2331;48.806;9.140;2023-05-16T05:42:17;61.05;;;33.58;;
4636;SDS011;2331;48.806;9.140;2023-05-16T05:44:44;58.33;;;33.22;;
4636;SDS011;2331;48.806;9.140;2023-05-16T05:47:11;61.30;;;34.97;;
4636;SDS011;2331;48.806;9.140;2023-05-16T05:49:38;61.78;;;34.75;;
4636;SDS011;2331;48.806;9.140;2023-05-16T05:52:05;59.88;;;33.08;;
4636;SDS011;2331;48.806;9.140;2023-05-16T05:54:32;61.40;;;34.83;;
4636;SDS011;2331;48.806;9.140;2023-05-16T05:57:00;66.20;;;33.17;;
4636;SDS011;2331;48.806;9.140;2023-05-16T05:59:27;56.28;;;31.45;;
4636;SDS011;2331;48.806;9.140;2023-05-16T06:01:54;61.75;;;35.17;;
4636;SDS011;2331;48.806;9.140;2023-05-16T06:04:21;54.38;;;32.67;;
4636;SDS011;2331;48.806;9.140;2023-05-16T06:06:48;62.05;;;32.97;;
4636;SDS011;2331;48.806;9.140;2023-05-16T06:09:15;58.08;;;32.70;;
4636;SDS011;2331;48.806;9.140;2023-05-16T06:11:42;53.75;;;30.85;;
4636;SDS011;2331;48.806;9.140;2023-05-16T06:14:11;54.38;;;31.45;;
4636;SDS011;2331;48.806;9.140;2023-05-16T06:16:39;56.20;;;31.90;;
4636;SDS011;2331;48.806;9.140;2023-05-16T06:19:06;55.53;;;30.77;;
4636;SDS011;2331;48.806;9.140;2023-05-16T06:21:33;50.97;;;29.65;;
4636;SDS011;2331;48.806;9.140;2023-05-16T06:24:00;55.80;;;30.45;;
4636;SDS011;2331;48.806;9.140;2023-05-16T06:26:27;58.35;;;32.75;;
4636;SDS011;2331;48.806;9.140;2023-05-16T06:28:54;52.88;;;30.23;;
4636;SDS011;2331;48.806;9.140;2023-05-16T06:31:22;56.95;;;30.58;;
4636;SDS011;2331;48.806;9.140;2023-05-16T06:33:48;52.75;;;30.25;;
4636;SDS011;2331;48.806;9.140;2023-05-16T06:36:15;53.40;;;29.67;;
4636;SDS011;2331;48.806;9.140;2023-05-16T06:38:42;53.13;;;28.70;;
4636;SDS011;2331;48.806;9.140;2023-05-16T06:41:09;47.53;;;27.50;;
4636;SDS011;2331;48.806;9.140;2023-05-16T06:43:36;51.45;;;29.00;;
4636;SDS011;2331;48.806;9.140;2023-05-16T06:46:03;42.30;;;26.73;;
4636;SDS011;2331;48.806;9.140;2023-05-16T06:48:31;45.22;;;26.38;;
4636;SDS011;2331;48.806;9.140;2023-05-16T06:50:58;46.35;;;26.42;;
4636;SDS011;2331;48.806;9.140;2023-05-16T06:53:25;44.28;;;25.73;;
4636;SDS011;2331;48.806;9.140;2023-05-16T06:55:52;44.20;;;25.63;;
4636;SDS011;2331;48.806;9.140;2023-05-16T06:58:19;43.33;;;25.17;;
4636;SDS011;2331;48.806;9.140;2023-05-16T07:00:47;39.38;;;23.35;;
4636;SDS011;2331;48.806;9.140;2023-05-16T07:03:14;41.08;;;25.00;;
4636;SDS011;2331;48.806;9.140;2023-05-16T07:05:42;37.38;;;22.73;;
4636;SDS011;2331;48.806;9.140;2023-05-16T07:08:09;32.17;;;20.10;;
4636;SDS011;2331;48.806;9.140;2023-05-16T07:10:36;32.90;;;19.77;;
4636;SDS011;2331;48.806;9.140;2023-05-16T07:13:03;31.85;;;19.30;;
4636;SDS011;2331;48.806;9.140;2023-05-16T07:15:30;27.23;;;17.98;;
4636;SDS011;2331;48.806;9.140;2023-05-16T07:17:57;24.98;;;16.60;;
4636;SDS011;2331;48.806;9.140;2023-05-16T07:20:24;32.22;;;17.65;;
4636;SDS011;2331;48.806;9.140;2023-05-16T07:22:52;24.67;;;16.08;;
4636;SDS011;2331;48.806;9.140;2023-05-16T07:25:21;22.70;;;15.20;;
4636;SDS011;2331;48.806;9.140;2023-05-16T07:27:48;19.20;;;14.00;;
4636;SDS011;2331;48.806;9.140;2023-05-16T07:30:15;22.35;;;14.68;;
4636;SDS011;2331;48.806;9.140;2023-05-16T07:32:41;18.10;;;12.93;;
4636;SDS011;2331;48.806;9.140;2023-05-16T07:35:08;20.80;;;12.68;;
4636;SDS011;2331;48.806;9.140;2023-05-16T07:37:37;20.45;;;12.40;;
4636;SDS011;2331;48.806;9.140;2023-05-16T07:40:07;18.30;;;12.18;;
4636;SDS011;2331;48.806;9.140;2023-05-16T07:42:35;15.43;;;10.75;;
4636;SDS011;2331;48.806;9.140;2023-05-16T07:45:02;16.30;;;11.15;;
4636;SDS011;2331;48.806;9.140;2023-05-16T07:47:29;15.20;;;10.82;;
4636;SDS011;2331;48.806;9.140;2023-05-16T07:49:56;15.85;;;10.98;;
4636;SDS011;2331;48.806;9.140;2023-05-16T07:52:23;16.83;;;11.73;;
4636;SDS011;2331;48.806;9.140;2023-05-16T07:54:50;15.60;;;11.15;;
4636;SDS011;2331;48.806;9.140;2023-05-16T07:57:18;16.63;;;11.20;;
4636;SDS011;2331;48.806;9.140;2023-05-16T07:59:45;18.77;;;12.40;;
4636;SDS011;2331;48.806;9.140;2023-05-16T08:02:11;15.20;;;11.32;;
4636;SDS011;2331;48.806;9.140;2023-05-16T08:04:38;12.00;;;9.50;;
4636;SDS011;2331;48.806;9.140;2023-05-16T08:07:05;18.17;;;11.25;;
4636;SDS011;2331;48.806;9.140;2023-05-16T08:09:32;14.27;;;11.13;;
4636;SDS011;2331;48.806;9.140;2023-05-16T08:11:58;18.70;;;11.85;;
4636;SDS011;2331;48.806;9.140;2023-05-16T08:14:29;18.25;;;10.80;;
4636;SDS011;2331;48.806;9.140;2023-05-16T08:16:57;18.70;;;12.57;;
4636;SDS011;2331;48.806;9.140;2023-05-16T08:19:24;19.48;;;13.15;;
4636;SDS011;2331;48.806;9.140;2023-05-16T08:21:51;18.63;;;13.30;;
4636;SDS011;2331;48.806;9.140;2023-05-16T08:24:18;17.10;;;12.80;;
4636;SDS011;2331;48.806;9.140;2023-05-16T08:26:44;19.35;;;13.23;;
4636;SDS011;2331;48.806;9.140;2023-05-16T08:29:11;17.85;;;12.85;;
4636;SDS011;2331;48.806;9.140;2023-05-16T08:31:39;20.58;;;12.73;;
4636;SDS011;2331;48.806;9.140;2023-05-16T08:34:06;20.30;;;14.07;;
4636;SDS011;2331;48.806;9.140;2023-05-16T08:36:34;18.45;;;13.07;;
4636;SDS011;2331;48.806;9.140;2023-05-16T08:39:01;17.13;;;12.65;;
4636;SDS011;2331;48.806;9.140;2023-05-16T08:41:29;21.75;;;12.75;;
4636;SDS011;2331;48.806;9.140;2023-05-16T08:43:55;19.60;;;13.40;;
4636;SDS011;2331;48.806;9.140;2023-05-16T08:46:22;18.52;;;12.85;;
4636;SDS011;2331;48.806;9.140;2023-05-16T08:48:52;20.13;;;13.05;;
4636;SDS011;2331;48.806;9.140;2023-05-16T08:51:20;20.70;;;13.43;;
4636;SDS011;2331;48.806;9.140;2023-05-16T08:53:49;22.38;;;14.88;;
4636;SDS011;2331;48.806;9.140;2023-05-16T08:56:22;24.67;;;15.80;;
4636;SDS011;2331;48.806;9.140;2023-05-16T08:58:50;23.60;;;16.02;;
4636;SDS011;2331;48.806;9.140;2023-05-16T09:01:19;25.85;;;16.42;;
4636;SDS011;2331;48.806;9.140;2023-05-16T09:03:47;28.38;;;16.83;;
4636;SDS011;2331;48.806;9.140;2023-05-16T09:06:16;25.52;;;17.15;;
4636;SDS011;2331;48.806;9.140;2023-05-16T09:08:43;27.88;;;17.75;;
4636;SDS011;2331;48.806;9.140;2023-05-16T09:11:10;24.95;;;16.67;;
4636;SDS011;2331;48.806;9.140;2023-05-16T09:13:37;30.65;;;17.58;;
4636;SDS011;2331;48.806;9.140;2023-05-16T09:16:07;30.15;;;18.48;;
4636;SDS011;2331;48.806;9.140;2023-05-16T09:18:35;31.20;;;18.75;;
4636;SDS011;2331;48.806;9.140;2023-05-16T09:21:03;34.83;;;19.50;;
4636;SDS011;2331;48.806;9.140;2023-05-16T09:23:32;29.52;;;18.88;;
4636;SDS011;2331;48.806;9.140;2023-05-16T09:25:59;37.30;;;19.67;;
4636;SDS011;2331;48.806;9.140;2023-05-16T09:28:27;31.52;;;18.98;;
4636;SDS011;2331;48.806;9.140;2023-05-16T09:30:54;33.10;;;19.15;;
4636;SDS011;2331;48.806;9.140;2023-05-16T09:33:23;31.52;;;19.23;;
4636;SDS011;2331;48.806;9.140;2023-05-16T09:35:55;32.20;;;20.48;;
4636;SDS011;2331;48.806;9.140;2023-05-16T09:38:23;32.58;;;18.58;;
4636;SDS011;2331;48.806;9.140;2023-05-16T09:40:52;34.78;;;18.83;;
4636;SDS011;2331;48.806;9.140;2023-05-16T09:43:21;32.75;;;19.23;;
4636;SDS011;2331;48.806;9.140;2023-05-16T09:45:50;29.30;;;18.40;;
4636;SDS011;2331;48.806;9.140;2023-05-16T09:48:18;31.00;;;19.55;;
4636;SDS011;2331;48.806;9.140;2023-05-16T09:50:48;28.65;;;17.60;;
4636;SDS011;2331;48.806;9.140;2023-05-16T09:53:17;30.95;;;19.17;;
4636;SDS011;2331;48.806;9.140;2023-05-16T09:55:50;29.90;;;18.75;;
4636;SDS011;2331;48.806;9.140;2023-05-16T09:58:27;30.45;;;18.70;;
4636;SDS011;2331;48.806;9.140;2023-05-16T10:00:55;39.50;;;18.58;;
4636;SDS011;2331;48.806;9.140;2023-05-16T10:03:22;32.22;;;18.38;;
4636;SDS011;2331;48.806;9.140;2023-05-16T10:05:51;36.72;;;18.60;;
4636;SDS011;2331;48.806;9.140;2023-05-16T10:08:19;28.10;;;17.13;;
4636;SDS011;2331;48.806;9.140;2023-05-16T10:10:47;23.60;;;15.45;;
4636;SDS011;2331;48.806;9.140;2023-05-16T10:13:18;28.40;;;17.58;;
4636;SDS011;2331;48.806;9.140;2023-05-16T10:15:47;25.83;;;15.52;;
4636;SDS011;2331;48.806;9.140;2023-05-16T10:18:16;24.52;;;16.13;;
4636;SDS011;2331;48.806;9.140;2023-05-16T10:20:45;24.33;;;14.70;;
4636;SDS011;2331;48.806;9.140;2023-05-16T10:23:15;23.83;;;14.90;;
4636;SDS011;2331;48.806;9.140;2023-05-16T10:25:43;22.58;;;14.20;;
4636;SDS011;2331;48.806;9.140;2023-05-16T10:28:11;23.65;;;14.65;;
4636;SDS011;2331;48.806;9.140;2023-05-16T10:30:40;26.00;;;15.88;;
4636;SDS011;2331;48.806;9.140;2023-05-16T10:33:10;25.75;;;16.13;;
4636;SDS011;2331;48.806;9.140;2023-05-16T10:35:38;25.08;;;15.10;;
4636;SDS011;2331;48.806;9.140;2023-05-16T10:38:05;25.55;;;15.75;;
4636;SDS011;2331;48.806;9.140;2023-05-16T10:40:35;26.77;;;15.52;;
4636;SDS011;2331;48.806;9.140;2023-05-16T10:43:03;24.08;;;15.18;;
4636;SDS011;2331;48.806;9.140;2023-05-16T10:45:31;25.60;;;15.55;;
4636;SDS011;2331;48.806;9.140;2023-05-16T10:48:00;24.38;;;14.48;;
4636;SDS011;2331;48.806;9.140;2023-05-16T10:50:30;24.55;;;14.68;;
4636;SDS011;2331;48.806;9.140;2023-05-16T10:53:12;25.25;;;14.00;;
4636;SDS011;2331;48.806;9.140;2023-05-16T10:55:44;18.88;;;12.35;;
4636;SDS011;2331;48.806;9.140;2023-05-16T10:58:17;20.35;;;12.85;;
4636;SDS011;2331;48.806;9.140;2023-05-16T11:00:48;20.73;;;12.30;;
4636;SDS011;2331;48.806;9.140;2023-05-16T11:03:21;20.98;;;13.10;;
4636;SDS011;2331;48.806;9.140;2023-05-16T11:05:52;19.80;;;12.82;;
4636;SDS011;2331;48.806;9.140;2023-05-16T11:08:19;21.80;;;13.80;;
4636;SDS011;2331;48.806;9.140;2023-05-16T11:10:45;21.40;;;13.77;;
4636;SDS011;2331;48.806;9.140;2023-05-16T11:13:13;20.67;;;12.68;;
4636;SDS011;2331;48.806;9.140;2023-05-16T11:15:43;16.27;;;10.93;;
4636;SDS011;2331;48.806;9.140;2023-05-16T11:18:13;18.10;;;11.50;;
4636;SDS011;2331;48.806;9.140;2023-05-16T11:20:44;17.35;;;11.43;;
4636;SDS011;2331;48.806;9.140;2023-05-16T11:23:17;28.83;;;14.35;;
4636;SDS011;2331;48.806;9.140;2023-05-16T11:25:46;14.25;;;9.70;;
4636;SDS011;2331;48.806;9.140;2023-05-16T11:28:15;13.38;;;8.80;;
4636;SDS011;2331;48.806;9.140;2023-05-16T11:30:43;13.88;;;8.25;;
4636;SDS011;2331;48.806;9.140;2023-05-16T11:33:11;13.50;;;7.95;;
4636;SDS011;2331;48.806;9.140;2023-05-16T11:35:38;12.55;;;7.43;;
4636;SDS011;2331;48.806;9.140;2023-05-16T11:38:10;10.80;;;7.30;;
4636;SDS011;2331;48.806;9.140;2023-05-16T11:40:40;9.90;;;6.15;;
4636;SDS011;2331;48.806;9.140;2023-05-16T11:43:08;11.38;;;6.40;;
4636;SDS011;2331;48.806;9.140;2023-05-16T11:45:35;9.00;;;6.25;;
4636;SDS011;2331;48.806;9.140;2023-05-16T11:48:02;8.70;;;6.03;;
4636;SDS011;2331;48.806;9.140;2023-05-16T11:50:30;8.60;;;5.97;;
4636;SDS011;2331;48.806;9.140;2023-05-16T11:53:00;10.98;;;6.43;;
4636;SDS011;2331;48.806;9.140;2023-05-16T11:55:29;9.85;;;6.70;;
4636;SDS011;2331;48.806;9.140;2023-05-16T11:57:57;9.70;;;6.85;;
4636;SDS011;2331;48.806;9.140;2023-05-16T12:00:25;10.30;;;7.10;;
4636;SDS011;2331;48.806;9.140;2023-05-16T12:02:52;9.43;;;6.65;;
4636;SDS011;2331;48.806;9.140;2023-05-16T12:05:20;10.45;;;6.80;;
4636;SDS011;2331;48.806;9.140;2023-05-16T12:07:52;10.07;;;6.05;;
4636;SDS011;2331;48.806;9.140;2023-05-16T12:10:19;10.05;;;6.22;;
4636;SDS011;2331;48.806;9.140;2023-05-16T12:12:48;9.30;;;6.57;;
4636;SDS011;2331;48.806;9.140;2023-05-16T12:15:17;9.18;;;6.32;;
4636;SDS011;2331;48.806;9.140;2023-05-16T12:17:44;10.95;;;6.70;;
4636;SDS011;2331;48.806;9.140;2023-05-16T12:20:11;10.25;;;6.32;;
4636;SDS011;2331;48.806;9.140;2023-05-16T12:22:40;8.38;;;5.72;;
4636;SDS011;2331;48.806;9.140;2023-05-16T12:25:19;9.45;;;5.78;;
4636;SDS011;2331;48.806;9.140;2023-05-16T12:27:49;8.23;;;5.95;;
4636;SDS011;2331;48.806;9.140;2023-05-16T12:30:15;8.80;;;6.07;;
4636;SDS011;2331;48.806;9.140;2023-05-16T12:32:42;10.35;;;5.95;;
4636;SDS011;2331;48.806;9.140;2023-05-16T12:35:09;6.47;;;4.68;;
4636;SDS011;2331;48.806;9.140;2023-05-16T12:37:37;8.77;;;5.25;;
4636;SDS011;2331;48.806;9.140;2023-05-16T12:40:04;8.18;;;5.00;;
4636;SDS011;2331;48.806;9.140;2023-05-16T12:42:35;6.13;;;4.47;;
4636;SDS011;2331;48.806;9.140;2023-05-16T12:45:03;6.03;;;4.00;;
4636;SDS011;2331;48.806;9.140;2023-05-16T12:47:34;5.80;;;3.90;;
4636;SDS011;2331;48.806;9.140;2023-05-16T12:50:02;4.45;;;3.20;;
4636;SDS011;2331;48.806;9.140;2023-05-16T12:52:34;5.25;;;3.30;;
4636;SDS011;2331;48.806;9.140;2023-05-16T12:55:00;5.18;;;3.50;;
4636;SDS011;2331;48.806;9.140;2023-05-16T12:57:27;5.63;;;3.10;;
4636;SDS011;2331;48.806;9.140;2023-05-16T12:59:54;3.85;;;3.25;;
4636;SDS011;2331;48.806;9.140;2023-05-16T13:02:22;5.60;;;3.75;;
4636;SDS011;2331;48.806;9.140;2023-05-16T13:04:49;4.57;;;3.28;;
4636;SDS011;2331;48.806;9.140;2023-05-16T13:07:16;5.35;;;3.40;;
4636;SDS011;2331;48.806;9.140;2023-05-16T13:09:43;3.90;;;2.90;;
4636;SDS011;2331;48.806;9.140;2023-05-16T13:12:09;4.50;;;2.90;;
4636;SDS011;2331;48.806;9.140;2023-05-16T13:14:38;4.47;;;3.10;;
4636;SDS011;2331;48.806;9.140;2023-05-16T13:17:06;4.85;;;2.78;;
4636;SDS011;2331;48.806;9.140;2023-05-16T13:19:34;3.83;;;2.63;;
4636;SDS011;2331;48.806;9.140;2023-05-16T13:22:01;5.68;;;2.70;;
4636;SDS011;2331;48.806;9.140;2023-05-16T13:27:14;3.22;;;2.42;;
4636;SDS011;2331;48.806;9.140;2023-05-16T13:29:41;3.13;;;2.10;;
4636;SDS011;2331;48.806;9.140;2023-05-16T13:32:08;3.90;;;2.40;;
4636;SDS011;2331;48.806;9.140;2023-05-16T13:34:36;5.03;;;2.63;;
4636;SDS011;2331;48.806;9.140;2023-05-16T13:37:03;2.85;;;2.05;;
4636;SDS011;2331;48.806;9.140;2023-05-16T13:39:30;4.63;;;2.15;;
4636;SDS011;2331;48.806;9.140;2023-05-16T13:41:57;3.13;;;2.13;;
4636;SDS011;2331;48.806;9.140;2023-05-16T13:44:24;3.10;;;2.20;;
4636;SDS011;2331;48.806;9.140;2023-05-16T13:46:51;4.90;;;2.13;;
4636;SDS011;2331;48.806;9.140;2023-05-16T13:49:18;3.30;;;2.00;;
4636;SDS011;2331;48.806;9.140;2023-05-16T13:51:46;4.60;;;2.25;;
4636;SDS011;2331;48.806;9.140;2023-05-16T13:54:13;4.68;;;2.55;;
4636;SDS011;2331;48.806;9.140;2023-05-16T13:56:43;3.92;;;2.20;;
4636;SDS011;2331;48.806;9.140;2023-05-16T13:59:13;2.72;;;2.20;;
4636;SDS011;2331;48.806;9.140;2023-05-16T14:01:43;6.55;;;2.30;;
4636;SDS011;2331;48.806;9.140;2023-05-16T14:04:10;6.38;;;2.15;;
4636;SDS011;2331;48.806;9.140;2023-05-16T14:06:37;3.55;;;2.00;;
4636;SDS011;2331;48.806;9.140;2023-05-16T14:09:05;2.75;;;2.05;;
4636;SDS011;2331;48.806;9.140;2023-05-16T14:11:32;4.20;;;1.90;;
4636;SDS011;2331;48.806;9.140;2023-05-16T14:13:59;3.83;;;2.50;;
4636;SDS011;2331;48.806;9.140;2023-05-16T14:16:26;2.50;;;1.90;;
4636;SDS011;2331;48.806;9.140;2023-05-16T14:18:55;2.95;;;2.00;;
4636;SDS011;2331;48.806;9.140;2023-05-16T14:21:21;4.38;;;2.05;;
4636;SDS011;2331;48.806;9.140;2023-05-16T14:23:48;6.13;;;2.25;;
4636;SDS011;2331;48.806;9.140;2023-05-16T14:26:16;2.47;;;1.83;;
4636;SDS011;2331;48.806;9.140;2023-05-16T14:28:46;4.03;;;2.10;;
4636;SDS011;2331;48.806;9.140;2023-05-16T14:31:13;3.45;;;2.20;;
4636;SDS011;2331;48.806;9.140;2023-05-16T14:33:40;5.32;;;2.20;;
4636;SDS011;2331;48.806;9.140;2023-05-16T14:36:08;2.58;;;1.80;;
4636;SDS011;2331;48.806;9.140;2023-05-16T14:38:35;7.47;;;2.13;;
4636;SDS011;2331;48.806;9.140;2023-05-16T14:41:03;3.47;;;1.90;;
4636;SDS011;2331;48.806;9.140;2023-05-16T14:43:38;3.90;;;1.65;;
4636;SDS011;2331;48.806;9.140;2023-05-16T14:46:07;3.17;;;1.60;;
4636;SDS011;2331;48.806;9.140;2023-05-16T14:48:37;2.85;;;1.40;;
4636;SDS011;2331;48.806;9.140;2023-05-16T14:51:05;5.05;;;1.52;;
4636;SDS011;2331;48.806;9.140;2023-05-16T14:53:32;2.45;;;1.58;;
4636;SDS011;2331;48.806;9.140;2023-05-16T14:55:59;5.05;;;1.67;;
4636;SDS011;2331;48.806;9.140;2023-05-16T14:58:30;4.40;;;1.67;;
4636;SDS011;2331;48.806;9.140;2023-05-16T15:00:59;3.13;;;1.52;;